Time;durP1;ratioP1;P1;durP2;ratioP2;P2;SDS_P1;SDS_P2;PMS_P1;PMS_P2;Temp;Humidity;BMP_temperature;BMP_pressure;BME280_temperature;BME280_humidity;BME280_pressure;Samples;Min_cycle;Max_cycle;Signal;HPM_P1;HPM_P2
2023/04/04 00:00:25;;;;;;;2.40;2.08;;;;;;;;;;4849888;29;20084;-96
2023/04/04 00:02:51;;;;;;;4.72;2.35;;;;;;;;;;4849402;29;20147;-96
2023/04/04 00:05:17;;;;;;;3.15;2.10;;;;;;;;;;4849024;29;20101;-95
2023/04/04 00:07:46;;;;;;;3.42;2.00;;;;;;;;;;4849053;29;20068;-95
2023/04/04 00:10:13;;;;;;;2.63;2.13;;;;;;;;;;4849394;29;20049;-92
2023/04/04 00:12:39;;;;;;;3.70;3.15;;;;;;;;;;4849012;29;20057;-94
2023/04/04 00:15:12;;;;;;;3.40;2.58;;;;;;;;;;4849401;29;20089;-93
2023/04/04 00:17:42;;;;;;;4.57;2.60;;;;;;;;;;4850317;29;20488;-93
2023/04/04 00:20:13;;;;;;;9.55;3.08;;;;;;;;;;4850821;29;20056;-94
2023/04/04 00:22:40;;;;;;;6.10;2.75;;;;;;;;;;4849642;29;20121;-93
2023/04/04 00:25:06;;;;;;;6.78;2.88;;;;;;;;;;4849624;29;20499;-94
2023/04/04 00:27:38;;;;;;;4.40;3.03;;;;;;;;;;4849839;29;20071;-93
2023/04/04 00:30:04;;;;;;;3.75;2.67;;;;;;;;;;4850017;29;20057;-94
2023/04/04 00:32:34;;;;;;;5.03;2.95;;;;;;;;;;4851868;29;20061;-94
2023/04/04 00:35:09;;;;;;;7.90;3.15;;;;;;;;;;4854745;29;20501;-94
2023/04/04 00:37:37;;;;;;;6.97;3.08;;;;;;;;;;4853808;29;20053;-93
2023/04/04 00:40:04;;;;;;;7.95;3.42;;;;;;;;;;4855234;29;20056;-94
2023/04/04 00:42:30;;;;;;;11.45;3.30;;;;;;;;;;4856948;29;20063;-94
2023/04/04 00:44:56;;;;;;;3.38;2.90;;;;;;;;;;4856749;29;20073;-94
2023/04/04 00:47:24;;;;;;;4.40;3.38;;;;;;;;;;4856123;29;20148;-94
2023/04/04 00:49:51;;;;;;;4.13;2.83;;;;;;;;;;4857262;29;20051;-94
2023/04/04 00:52:18;;;;;;;5.43;3.30;;;;;;;;;;4858881;29;20057;-93
2023/04/04 00:54:44;;;;;;;8.70;3.25;;;;;;;;;;4858665;29;20510;-94
2023/04/04 00:57:10;;;;;;;6.88;2.88;;;;;;;;;;4857921;29;20052;-93
2023/04/04 00:59:39;;;;;;;7.68;3.42;;;;;;;;;;4856015;29;20164;-94
2023/04/04 01:02:06;;;;;;;6.20;3.33;;;;;;;;;;4837375;29;20152;-92
2023/04/04 01:04:32;;;;;;;5.60;3.97;;;;;;;;;;4851585;29;20502;-92
2023/04/04 01:06:59;;;;;;;8.50;3.83;;;;;;;;;;4836790;29;20056;-92
2023/04/04 01:09:25;;;;;;;6.65;3.17;;;;;;;;;;4868298;29;20045;-89
2023/04/04 01:11:51;;;;;;;3.88;2.90;;;;;;;;;;4851856;29;20057;-90
2023/04/04 01:14:18;;;;;;;4.07;2.72;;;;;;;;;;4866728;29;20550;-93
2023/04/04 01:16:45;;;;;;;4.97;3.05;;;;;;;;;;4866627;29;20063;-93
2023/04/04 01:19:16;;;;;;;8.25;3.65;;;;;;;;;;4852012;29;20061;-94
2023/04/04 01:21:42;;;;;;;4.32;2.83;;;;;;;;;;4851256;29;20049;-93
2023/04/04 01:24:10;;;;;;;4.50;2.70;;;;;;;;;;4851264;29;20092;-93
2023/04/04 01:26:36;;;;;;;2.90;2.60;;;;;;;;;;4836691;29;20147;-93
2023/04/04 01:29:02;;;;;;;5.28;3.00;;;;;;;;;;4867818;29;20064;-92
2023/04/04 01:31:48;;;;;;;4.30;2.92;;;;;;;;;;4851752;29;20442;-92
2023/04/04 01:34:15;;;;;;;4.38;3.40;;;;;;;;;;4851315;29;20117;-93
2023/04/04 01:36:49;;;;;;;6.78;3.65;;;;;;;;;;4850859;29;20064;-93
2023/04/04 01:39:20;;;;;;;4.47;3.28;;;;;;;;;;4866494;29;20084;-93
2023/04/04 01:41:48;;;;;;;8.18;3.47;;;;;;;;;;4850845;29;20534;-93
2023/04/04 01:44:14;;;;;;;7.75;3.03;;;;;;;;;;4865453;29;20053;-92
2023/04/04 01:46:41;;;;;;;5.50;3.53;;;;;;;;;;4851151;29;20061;-93
2023/04/04 01:49:07;;;;;;;6.90;4.00;;;;;;;;;;4851093;29;20053;-93
2023/04/04 01:51:33;;;;;;;5.20;3.08;;;;;;;;;;4851082;29;20057;-92
2023/04/04 01:53:59;;;;;;;3.78;3.03;;;;;;;;;;4851607;29;20065;-91
2023/04/04 01:56:26;;;;;;;5.72;3.58;;;;;;;;;;4851868;29;20146;-93
2023/04/04 01:58:52;;;;;;;3.13;2.70;;;;;;;;;;4866491;29;20059;-92
2023/04/04 02:01:18;;;;;;;7.80;3.67;;;;;;;;;;4850790;29;20084;-92
2023/04/04 02:03:46;;;;;;;12.40;4.20;;;;;;;;;;4850701;29;20399;-93
2023/04/04 02:06:12;;;;;;;12.80;4.00;;;;;;;;;;4835500;29;20056;-92
2023/04/04 02:08:38;;;;;;;5.68;3.90;;;;;;;;;;4851130;29;20396;-93
2023/04/04 02:11:04;;;;;;;5.10;3.45;;;;;;;;;;4866232;29;20089;-93
2023/04/04 02:13:30;;;;;;;5.22;3.30;;;;;;;;;;4851141;29;20052;-93
2023/04/04 02:15:57;;;;;;;5.65;4.03;;;;;;;;;;4850807;29;20103;-92
2023/04/04 02:18:23;;;;;;;8.45;3.90;;;;;;;;;;4834913;29;20061;-91
2023/04/04 02:20:55;;;;;;;8.35;4.05;;;;;;;;;;4851364;29;20065;-92
2023/04/04 02:23:21;;;;;;;4.25;3.85;;;;;;;;;;4850402;29;20049;-92
2023/04/04 02:25:49;;;;;;;9.60;4.57;;;;;;;;;;4850561;29;20053;-92
2023/04/04 02:28:16;;;;;;;7.07;4.22;;;;;;;;;;4850384;29;20061;-92
2023/04/04 02:30:42;;;;;;;4.00;3.33;;;;;;;;;;4865269;29;20060;-92
2023/04/04 02:33:08;;;;;;;10.38;5.00;;;;;;;;;;4865038;29;20113;-91
2023/04/04 02:35:34;;;;;;;5.05;4.13;;;;;;;;;;4835034;29;20123;-91
2023/04/04 02:38:00;;;;;;;5.97;3.95;;;;;;;;;;4850194;29;20067;-91
2023/04/04 02:40:26;;;;;;;7.55;4.40;;;;;;;;;;4850241;29;20053;-91
2023/04/04 02:42:52;;;;;;;4.70;3.88;;;;;;;;;;4834362;29;20101;-91
2023/04/04 02:45:18;;;;;;;4.57;4.10;;;;;;;;;;4834296;29;20057;-91
2023/04/04 02:47:49;;;;;;;8.88;4.40;;;;;;;;;;4834368;29;20089;-92
2023/04/04 02:50:16;;;;;;;7.25;4.32;;;;;;;;;;4849495;29;20509;-90
2023/04/04 02:52:42;;;;;;;6.80;4.72;;;;;;;;;;4849387;29;20099;-91
2023/04/04 02:55:08;;;;;;;10.75;4.05;;;;;;;;;;4849852;29;20170;-91
2023/04/04 02:57:35;;;;;;;9.73;4.40;;;;;;;;;;4865557;29;20057;-92
2023/04/04 03:00:03;;;;;;;8.35;4.35;;;;;;;;;;4835036;29;20048;-92
2023/04/04 03:02:29;;;;;;;4.20;3.47;;;;;;;;;;4850433;29;20086;-92
2023/04/04 03:04:56;;;;;;;9.23;4.05;;;;;;;;;;4834745;29;20094;-92
2023/04/04 03:07:25;;;;;;;7.43;4.00;;;;;;;;;;4849413;29;20060;-91
2023/04/04 03:09:51;;;;;;;8.35;4.25;;;;;;;;;;4834863;29;20053;-92
2023/04/04 03:12:20;;;;;;;5.85;4.55;;;;;;;;;;4865376;29;20064;-92
2023/04/04 03:14:47;;;;;;;5.50;3.88;;;;;;;;;;4849777;29;20061;-91
2023/04/04 03:17:14;;;;;;;5.10;3.75;;;;;;;;;;4849821;29;20478;-90
2023/04/04 03:19:40;;;;;;;7.70;3.85;;;;;;;;;;4849710;29;20510;-89
2023/04/04 03:22:06;;;;;;;11.77;4.32;;;;;;;;;;4865048;29;20060;-91
2023/04/04 03:24:32;;;;;;;8.40;4.18;;;;;;;;;;4849473;29;20458;-91
2023/04/04 03:27:01;;;;;;;8.75;3.45;;;;;;;;;;4834541;29;20056;-90
2023/04/04 03:29:28;;;;;;;7.15;4.28;;;;;;;;;;4849158;29;20135;-91
2023/04/04 03:31:54;;;;;;;13.20;3.70;;;;;;;;;;4849299;29;20511;-92
2023/04/04 03:34:20;;;;;;;8.30;4.20;;;;;;;;;;4849310;29;20056;-91
2023/04/04 03:36:46;;;;;;;6.03;4.32;;;;;;;;;;4864828;29;20052;-91
2023/04/04 03:39:12;;;;;;;9.73;4.47;;;;;;;;;;4849548;29;20061;-92
2023/04/04 03:41:38;;;;;;;9.05;4.28;;;;;;;;;;4849158;29;20053;-90
2023/04/04 03:44:04;;;;;;;5.15;3.97;;;;;;;;;;4833762;29;20525;-92
2023/04/04 03:46:30;;;;;;;4.68;3.38;;;;;;;;;;4864749;29;20405;-91
2023/04/04 03:48:59;;;;;;;5.35;3.78;;;;;;;;;;4849548;29;20059;-91
2023/04/04 03:51:26;;;;;;;5.50;3.85;;;;;;;;;;4865066;29;20053;-91
2023/04/04 03:53:53;;;;;;;7.85;4.03;;;;;;;;;;4849357;29;20060;-92
2023/04/04 03:56:19;;;;;;;6.70;4.03;;;;;;;;;;4850173;29;20053;-91
2023/04/04 03:58:45;;;;;;;7.22;4.35;;;;;;;;;;4834417;29;20131;-91
2023/04/04 04:01:11;;;;;;;4.60;3.50;;;;;;;;;;4865401;29;20049;-92
2023/04/04 04:03:37;;;;;;;4.10;3.70;;;;;;;;;;4834905;29;20053;-92
2023/04/04 04:06:03;;;;;;;4.70;3.95;;;;;;;;;;4833999;29;20498;-92
2023/04/04 04:08:29;;;;;;;7.55;3.72;;;;;;;;;;4848486;29;20060;-89
2023/04/04 04:10:56;;;;;;;6.80;4.00;;;;;;;;;;4849677;29;20053;-89
2023/04/04 04:13:22;;;;;;;4.88;3.95;;;;;;;;;;4864086;29;20057;-91
2023/04/04 04:15:48;;;;;;;7.75;4.35;;;;;;;;;;4849372;29;20193;-92
2023/04/04 04:18:14;;;;;;;6.85;4.35;;;;;;;;;;4848916;29;20543;-92
2023/04/04 04:20:40;;;;;;;6.65;4.13;;;;;;;;;;4849280;29;20388;-91
2023/04/04 04:23:09;;;;;;;4.85;4.05;;;;;;;;;;4849968;29;20056;-92
2023/04/04 04:25:35;;;;;;;8.57;4.05;;;;;;;;;;4834291;29;20056;-91
2023/04/04 04:28:01;;;;;;;8.30;3.90;;;;;;;;;;4849842;29;20059;-93
2023/04/04 04:30:27;;;;;;;6.05;4.05;;;;;;;;;;4834730;29;20041;-92
2023/04/04 04:32:53;;;;;;;7.50;4.40;;;;;;;;;;4833990;29;20065;-90
2023/04/04 04:35:19;;;;;;;5.00;3.90;;;;;;;;;;4833791;29;20049;-91
2023/04/04 04:37:46;;;;;;;7.40;4.10;;;;;;;;;;4833300;29;20061;-92
2023/04/04 04:40:13;;;;;;;8.10;4.18;;;;;;;;;;4848298;29;20144;-92
2023/04/04 04:42:45;;;;;;;8.18;3.75;;;;;;;;;;4833297;29;20053;-92
2023/04/04 04:45:11;;;;;;;9.40;4.60;;;;;;;;;;4849102;29;20144;-91
2023/04/04 04:47:37;;;;;;;5.60;4.20;;;;;;;;;;4850602;29;20056;-91
2023/04/04 04:50:04;;;;;;;5.88;3.75;;;;;;;;;;4867818;29;20060;-92
2023/04/04 04:52:30;;;;;;;4.68;3.70;;;;;;;;;;4854223;29;20068;-90
2023/04/04 04:55:09;;;;;;;4.63;3.35;;;;;;;;;;4840936;29;20056;-90
2023/04/04 04:57:35;;;;;;;7.43;3.85;;;;;;;;;;4835476;29;20427;-92
2023/04/04 05:00:05;;;;;;;6.93;4.60;;;;;;;;;;4848861;29;20049;-91
2023/04/04 05:02:33;;;;;;;5.68;3.83;;;;;;;;;;4849140;29;20049;-90
2023/04/04 05:04:59;;;;;;;7.85;4.00;;;;;;;;;;4834173;29;20072;-90
2023/04/04 05:07:25;;;;;;;8.85;4.00;;;;;;;;;;4833482;29;20052;-89
2023/04/04 05:09:51;;;;;;;5.78;3.67;;;;;;;;;;4848545;29;20057;-90
2023/04/04 05:12:17;;;;;;;5.35;4.15;;;;;;;;;;4833088;29;20487;-92
2023/04/04 05:14:47;;;;;;;10.05;5.15;;;;;;;;;;4864559;29;20105;-90
2023/04/04 05:17:13;;;;;;;5.50;4.10;;;;;;;;;;4848034;29;20049;-91
2023/04/04 05:19:39;;;;;;;4.95;3.75;;;;;;;;;;4833923;29;20057;-92
2023/04/04 05:22:06;;;;;;;6.63;4.13;;;;;;;;;;4851817;29;20045;-92
2023/04/04 05:24:33;;;;;;;4.30;3.65;;;;;;;;;;4851951;29;20057;-92
2023/04/04 05:26:59;;;;;;;6.00;3.60;;;;;;;;;;4852092;29;20057;-91
2023/04/04 05:29:26;;;;;;;5.30;3.47;;;;;;;;;;4852064;29;20053;-92
2023/04/04 05:31:52;;;;;;;8.63;4.07;;;;;;;;;;4837017;29;20160;-93
2023/04/04 05:34:18;;;;;;;5.18;3.90;;;;;;;;;;4836075;29;20065;-92
2023/04/04 05:36:45;;;;;;;5.75;4.32;;;;;;;;;;4852034;29;20052;-92
2023/04/04 05:39:11;;;;;;;10.90;5.32;;;;;;;;;;4835872;29;20045;-92
2023/04/04 05:41:37;;;;;;;12.75;5.15;;;;;;;;;;4835526;29;20049;-91
2023/04/04 05:44:03;;;;;;;10.27;4.38;;;;;;;;;;4851379;29;20059;-91
2023/04/04 05:46:30;;;;;;;6.05;3.47;;;;;;;;;;4866254;29;20049;-90
2023/04/04 05:48:56;;;;;;;5.05;4.07;;;;;;;;;;4851532;29;20096;-92
2023/04/04 05:51:22;;;;;;;5.82;3.90;;;;;;;;;;4851545;29;20140;-92
2023/04/04 05:53:48;;;;;;;8.50;3.80;;;;;;;;;;4852027;29;20514;-92
2023/04/04 05:56:14;;;;;;;5.80;3.58;;;;;;;;;;4837962;29;20049;-92
2023/04/04 05:58:41;;;;;;;7.75;4.50;;;;;;;;;;4836893;29;20053;-92
2023/04/04 06:01:08;;;;;;;5.45;4.40;;;;;;;;;;4836700;29;20049;-94
2023/04/04 06:03:34;;;;;;;10.52;3.90;;;;;;;;;;4852046;29;20057;-92
2023/04/04 06:06:03;;;;;;;8.82;4.97;;;;;;;;;;4836201;29;20088;-92
2023/04/04 06:08:29;;;;;;;5.25;3.80;;;;;;;;;;4851185;29;20092;-92
2023/04/04 06:10:55;;;;;;;10.45;5.13;;;;;;;;;;4851633;29;20049;-92
2023/04/04 06:13:21;;;;;;;5.57;4.07;;;;;;;;;;4867427;29;20067;-91
2023/04/04 06:15:47;;;;;;;9.70;4.50;;;;;;;;;;4852059;29;20516;-91
2023/04/04 06:18:16;;;;;;;6.80;5.03;;;;;;;;;;4836345;29;20056;-91
2023/04/04 06:20:42;;;;;;;7.05;4.13;;;;;;;;;;4852207;29;20604;-90
2023/04/04 06:23:08;;;;;;;7.03;4.30;;;;;;;;;;4853092;29;20060;-93
2023/04/04 06:25:38;;;;;;;5.97;4.45;;;;;;;;;;4839313;29;20057;-94
2023/04/04 06:28:04;;;;;;;11.02;4.68;;;;;;;;;;4854435;29;20057;-94
2023/04/04 06:30:30;;;;;;;6.78;3.90;;;;;;;;;;4838475;29;20136;-93
2023/04/04 06:32:56;;;;;;;5.07;3.70;;;;;;;;;;4836963;29;20061;-92
2023/04/04 06:35:22;;;;;;;5.90;3.95;;;;;;;;;;4853932;29;20060;-91
2023/04/04 06:37:54;;;;;;;7.70;4.65;;;;;;;;;;4853778;29;20494;-93
2023/04/04 06:40:23;;;;;;;8.32;4.63;;;;;;;;;;4853605;29;20101;-94
2023/04/04 06:42:50;;;;;;;6.72;4.07;;;;;;;;;;4854717;29;20113;-93
2023/04/04 06:45:16;;;;;;;11.20;4.35;;;;;;;;;;4853287;29;20061;-92
2023/04/04 06:47:43;;;;;;;7.53;4.30;;;;;;;;;;4853186;29;20053;-94
2023/04/04 06:50:12;;;;;;;5.00;4.10;;;;;;;;;;4853416;29;20060;-94
2023/04/04 06:52:41;;;;;;;8.02;3.75;;;;;;;;;;4852726;29;20049;-94
2023/04/04 06:55:07;;;;;;;6.05;3.92;;;;;;;;;;4868252;29;20063;-94
2023/04/04 06:57:33;;;;;;;6.82;4.30;;;;;;;;;;4852445;29;20065;-94
2023/04/04 06:59:59;;;;;;;6.68;3.97;;;;;;;;;;4852528;29;20081;-94
2023/04/04 07:02:26;;;;;;;5.78;3.50;;;;;;;;;;4854416;29;20056;-94
2023/04/04 07:04:52;;;;;;;6.03;4.70;;;;;;;;;;4853640;29;20049;-93
2023/04/04 07:07:18;;;;;;;6.50;3.65;;;;;;;;;;4838123;29;20426;-92
2023/04/04 07:09:44;;;;;;;13.75;3.15;;;;;;;;;;4852536;29;20044;-94
2023/04/04 07:12:10;;;;;;;8.90;5.00;;;;;;;;;;4836103;29;20132;-93
2023/04/04 07:14:36;;;;;;;5.85;3.42;;;;;;;;;;4850454;29;20064;-95
2023/04/04 07:17:02;;;;;;;7.15;3.30;;;;;;;;;;4850705;29;20052;-92
2023/04/04 07:19:28;;;;;;;7.53;3.72;;;;;;;;;;4850077;29;20057;-94
2023/04/04 07:21:55;;;;;;;5.75;3.67;;;;;;;;;;4835683;29;20123;-94
2023/04/04 07:24:21;;;;;;;6.93;3.72;;;;;;;;;;4850986;29;20148;-91
2023/04/04 07:26:48;;;;;;;6.10;4.22;;;;;;;;;;4866636;29;20060;-92
2023/04/04 07:29:14;;;;;;;5.70;3.97;;;;;;;;;;4850403;29;20049;-93
2023/04/04 07:31:40;;;;;;;7.28;4.18;;;;;;;;;;4835795;29;20483;-94
2023/04/04 07:34:06;;;;;;;6.30;3.17;;;;;;;;;;4868405;24;20077;-92
2023/04/04 07:36:32;;;;;;;8.18;3.08;;;;;;;;;;4850431;29;20092;-92
2023/04/04 07:38:59;;;;;;;8.35;3.10;;;;;;;;;;4850433;29;20143;-93
2023/04/04 07:41:26;;;;;;;5.53;3.20;;;;;;;;;;4849544;29;20057;-93
2023/04/04 07:43:52;;;;;;;9.88;3.78;;;;;;;;;;4849834;29;20053;-93
2023/04/04 07:46:19;;;;;;;5.60;3.15;;;;;;;;;;4849914;29;20049;-93
2023/04/04 07:48:45;;;;;;;5.75;3.08;;;;;;;;;;4849740;29;20057;-92
2023/04/04 08:06:28;;;;;;;5.30;3.25;;;;;;;;;;4882053;29;20436;-94
2023/04/04 08:12:18;;;;;;;6.53;3.30;;;;;;;;;;4881954;29;20399;-91
2023/04/04 08:14:44;;;;;;;7.05;3.03;;;;;;;;;;4849106;29;20136;-90
2023/04/04 08:17:11;;;;;;;3.70;2.88;;;;;;;;;;4849634;29;20083;-93
2023/04/04 08:19:37;;;;;;;5.15;2.80;;;;;;;;;;4849774;29;20056;-93
2023/04/04 08:22:04;;;;;;;3.75;2.67;;;;;;;;;;4835524;29;20128;-92
2023/04/04 08:24:30;;;;;;;4.75;3.25;;;;;;;;;;4864890;29;20068;-92
2023/04/04 08:26:56;;;;;;;8.07;3.08;;;;;;;;;;4850029;29;20125;-93
2023/04/04 08:29:22;;;;;;;4.13;2.60;;;;;;;;;;4834356;29;20049;-92
2023/04/04 08:31:48;;;;;;;5.65;2.50;;;;;;;;;;4849793;29;20088;-92
2023/04/04 08:34:15;;;;;;;6.85;2.33;;;;;;;;;;4863767;29;20053;-93
2023/04/04 08:36:41;;;;;;;3.40;2.25;;;;;;;;;;4849485;29;20052;-92
2023/04/04 08:39:07;;;;;;;5.70;2.75;;;;;;;;;;4848982;29;20119;-92
2023/04/04 08:41:34;;;;;;;3.75;2.45;;;;;;;;;;4848647;29;20147;-93
2023/04/04 08:44:03;;;;;;;3.58;2.47;;;;;;;;;;4848065;29;20056;-91
2023/04/04 08:46:29;;;;;;;5.03;2.47;;;;;;;;;;4848044;29;20112;-92
2023/04/04 08:48:56;;;;;;;8.05;3.13;;;;;;;;;;4864263;29;20049;-92
2023/04/04 08:51:25;;;;;;;4.78;2.53;;;;;;;;;;4848154;29;20056;-93
2023/04/04 08:53:51;;;;;;;5.20;2.42;;;;;;;;;;4850239;29;20053;-92
2023/04/04 08:56:17;;;;;;;3.15;2.15;;;;;;;;;;4837468;29;20156;-92
2023/04/04 08:58:43;;;;;;;4.25;2.53;;;;;;;;;;4852480;29;20533;-91
2023/04/04 09:01:10;;;;;;;5.25;2.45;;;;;;;;;;4837396;29;20135;-92
2023/04/04 09:03:37;;;;;;;5.22;2.10;;;;;;;;;;4852957;29;20111;-93
2023/04/04 09:06:03;;;;;;;5.95;2.00;;;;;;;;;;4868255;29;20057;-92
2023/04/04 09:08:30;;;;;;;4.47;1.95;;;;;;;;;;4852738;29;20049;-92
2023/04/04 09:10:56;;;;;;;4.18;1.80;;;;;;;;;;4843203;29;20065;-91
2023/04/04 09:13:23;;;;;;;3.05;2.20;;;;;;;;;;4840766;29;20056;-92
2023/04/04 09:15:53;;;;;;;5.95;2.47;;;;;;;;;;4851886;29;20149;-93
2023/04/04 09:18:19;;;;;;;5.28;2.45;;;;;;;;;;4851301;29;20147;-91
2023/04/04 09:20:48;;;;;;;5.97;2.22;;;;;;;;;;4867918;29;20064;-91
2023/04/04 09:23:16;;;;;;;4.68;2.17;;;;;;;;;;4852075;29;20113;-92
2023/04/04 09:25:46;;;;;;;2.35;2.08;;;;;;;;;;4852823;29;20068;-91
2023/04/04 09:28:14;;;;;;;4.90;2.25;;;;;;;;;;4852433;29;20053;-92
2023/04/04 09:30:41;;;;;;;3.17;2.28;;;;;;;;;;4852353;29;20498;-92
2023/04/04 09:33:09;;;;;;;4.13;2.13;;;;;;;;;;4851724;29;20061;-92
2023/04/04 09:35:40;;;;;;;4.38;2.30;;;;;;;;;;4851819;29;20049;-91
2023/04/04 09:38:06;;;;;;;2.53;2.28;;;;;;;;;;4851380;29;20144;-91
2023/04/04 09:40:34;;;;;;;2.65;1.95;;;;;;;;;;4851705;29;20079;-92
2023/04/04 09:43:04;;;;;;;6.18;1.98;;;;;;;;;;4851391;29;20044;-92
2023/04/04 09:45:30;;;;;;;4.47;1.60;;;;;;;;;;4851813;29;20136;-93
2023/04/04 09:47:57;;;;;;;5.75;2.47;;;;;;;;;;4850820;29;20044;-91
2023/04/04 09:50:24;;;;;;;6.68;1.92;;;;;;;;;;4836112;29;20072;-92
2023/04/04 09:52:51;;;;;;;3.58;2.00;;;;;;;;;;4851273;29;20089;-92
2023/04/04 09:55:17;;;;;;;4.22;2.22;;;;;;;;;;4851166;29;20403;-92
2023/04/04 09:57:45;;;;;;;4.72;2.08;;;;;;;;;;4850635;29;20057;-92
2023/04/04 10:00:12;;;;;;;3.08;2.10;;;;;;;;;;4850454;29;20415;-92
2023/04/04 10:02:40;;;;;;;2.92;2.60;;;;;;;;;;4850466;29;20057;-92
2023/04/04 10:05:09;;;;;;;3.45;1.98;;;;;;;;;;4850592;29;20060;-91
2023/04/04 10:07:38;;;;;;;9.40;2.40;;;;;;;;;;4851186;29;20061;-92
2023/04/04 10:10:08;;;;;;;2.90;2.08;;;;;;;;;;4850999;29;20049;-93
2023/04/04 10:12:34;;;;;;;3.60;2.38;;;;;;;;;;4851232;29;20128;-92
2023/04/04 10:15:00;;;;;;;6.38;2.75;;;;;;;;;;4850565;29;20061;-92
2023/04/04 10:17:30;;;;;;;5.38;2.80;;;;;;;;;;4850892;29;20057;-93
2023/04/04 10:20:00;;;;;;;6.25;2.53;;;;;;;;;;4850736;29;20401;-91
2023/04/04 10:22:28;;;;;;;3.97;2.20;;;;;;;;;;4850329;29;20092;-91
2023/04/04 10:24:54;;;;;;;2.92;2.60;;;;;;;;;;4850321;29;20144;-93
2023/04/04 10:27:21;;;;;;;5.20;2.35;;;;;;;;;;4837662;29;20591;-92
2023/04/04 10:29:47;;;;;;;3.35;2.08;;;;;;;;;;4850869;29;20414;-92
2023/04/04 10:32:23;;;;;;;3.65;2.13;;;;;;;;;;4835160;29;20049;-93
2023/04/04 10:34:53;;;;;;;4.07;2.28;;;;;;;;;;4851648;29;20061;-91
2023/04/04 10:37:23;;;;;;;5.53;2.60;;;;;;;;;;4850542;29;20064;-91
2023/04/04 10:39:52;;;;;;;3.90;2.25;;;;;;;;;;4850459;29;20056;-92
2023/04/04 10:42:18;;;;;;;4.97;2.17;;;;;;;;;;4850788;29;20053;-92
2023/04/04 10:44:45;;;;;;;3.90;2.15;;;;;;;;;;4850199;29;20060;-92
2023/04/04 10:47:17;;;;;;;3.30;2.30;;;;;;;;;;4850183;29;20055;-92
2023/04/04 10:49:44;;;;;;;8.00;2.65;;;;;;;;;;4850022;29;20056;-92
2023/04/04 10:52:12;;;;;;;5.82;2.60;;;;;;;;;;4850327;29;20057;-91
2023/04/04 10:54:39;;;;;;;5.18;2.67;;;;;;;;;;4850360;29;20057;-92
2023/04/04 10:57:06;;;;;;;4.25;2.80;;;;;;;;;;4849510;29;20053;-92
2023/04/04 10:59:32;;;;;;;5.97;3.60;;;;;;;;;;4850672;29;20063;-92
2023/04/04 11:01:59;;;;;;;7.05;3.72;;;;;;;;;;4849704;29;20061;-92
2023/04/04 11:04:46;;;;;;;5.50;3.35;;;;;;;;;;4849988;29;20049;-92
2023/04/04 11:07:15;;;;;;;7.57;3.08;;;;;;;;;;4850378;29;20057;-92
2023/04/04 11:09:47;;;;;;;4.95;2.90;;;;;;;;;;4850867;29;20072;-92
2023/04/04 11:12:19;;;;;;;5.38;3.05;;;;;;;;;;4850042;29;20477;-92
2023/04/04 11:14:55;;;;;;;3.67;3.00;;;;;;;;;;4850614;29;20053;-91
2023/04/04 11:18:01;;;;;;;4.05;2.83;;;;;;;;;;4848422;29;20053;-92
2023/04/04 11:20:32;;;;;;;4.13;2.75;;;;;;;;;;4812083;29;20065;-92
2023/04/04 11:23:02;;;;;;;6.15;2.58;;;;;;;;;;4827000;29;20061;-92
2023/04/04 11:25:36;;;;;;;7.40;4.25;;;;;;;;;;4841179;29;20566;-91
2023/04/04 11:28:24;;;;;;;6.35;3.08;;;;;;;;;;4849588;29;20487;-91
2023/04/04 11:31:10;;;;;;;4.97;3.13;;;;;;;;;;4850601;29;20041;-92
2023/04/04 11:33:54;;;;;;;5.40;2.50;;;;;;;;;;4850099;29;20048;-92
2023/04/04 11:36:36;;;;;;;3.55;3.13;;;;;;;;;;4849898;29;20121;-92
2023/04/04 11:39:11;;;;;;;3.72;2.53;;;;;;;;;;4849996;29;20053;-92
2023/04/04 11:41:53;;;;;;;6.35;3.38;;;;;;;;;;4850878;29;20056;-92
2023/04/04 11:44:23;;;;;;;3.78;2.70;;;;;;;;;;4850037;29;20084;-91
2023/04/04 11:47:09;;;;;;;6.53;3.45;;;;;;;;;;4850250;29;20049;-93
2023/04/04 11:49:48;;;;;;;6.97;4.85;;;;;;;;;;4850778;29;20061;-92
2023/04/04 11:52:16;;;;;;;7.63;3.20;;;;;;;;;;4850015;29;20048;-91
2023/04/04 11:54:43;;;;;;;6.35;3.25;;;;;;;;;;4850971;29;20410;-91
2023/04/04 11:57:13;;;;;;;8.48;3.33;;;;;;;;;;4848876;29;20055;-91
2023/04/04 11:59:44;;;;;;;7.72;4.68;;;;;;;;;;4833963;29;20057;-91
2023/04/04 12:02:11;;;;;;;5.15;3.75;;;;;;;;;;4850264;29;20060;-92
2023/04/04 12:04:39;;;;;;;9.35;3.55;;;;;;;;;;4850042;29;20056;-91
2023/04/04 12:07:06;;;;;;;7.53;3.17;;;;;;;;;;4850037;29;20081;-91
2023/04/04 12:09:33;;;;;;;4.95;3.22;;;;;;;;;;4850105;29;20049;-91
2023/04/04 12:11:59;;;;;;;7.20;3.63;;;;;;;;;;4850836;29;20120;-91
2023/04/04 12:14:27;;;;;;;5.60;3.55;;;;;;;;;;4865255;29;20056;-92
2023/04/04 12:16:54;;;;;;;4.55;3.30;;;;;;;;;;4849906;29;20060;-92
2023/04/04 12:19:22;;;;;;;4.60;3.38;;;;;;;;;;4849986;29;20554;-91
2023/04/04 12:21:48;;;;;;;4.63;2.78;;;;;;;;;;4865730;29;20057;-91
2023/04/04 12:24:15;;;;;;;4.57;3.22;;;;;;;;;;4849445;29;20140;-91
2023/04/04 12:26:46;;;;;;;8.60;3.63;;;;;;;;;;4849826;29;20121;-92
2023/04/04 12:29:13;;;;;;;5.38;3.65;;;;;;;;;;4848623;29;20566;-92
2023/04/04 12:31:41;;;;;;;5.20;3.20;;;;;;;;;;4848590;29;20444;-92
2023/04/04 12:34:07;;;;;;;7.97;3.60;;;;;;;;;;4848387;29;20053;-92
2023/04/04 12:36:36;;;;;;;8.48;3.10;;;;;;;;;;4848701;29;20109;-92
2023/04/04 12:39:05;;;;;;;6.80;3.25;;;;;;;;;;4864499;29;20048;-92
2023/04/04 12:41:32;;;;;;;6.68;3.47;;;;;;;;;;4848947;29;20089;-92
2023/04/04 12:43:59;;;;;;;9.70;3.75;;;;;;;;;;4848856;29;20113;-92
2023/04/04 12:46:26;;;;;;;5.40;2.95;;;;;;;;;;4849870;29;20143;-92
2023/04/04 12:48:53;;;;;;;5.20;3.10;;;;;;;;;;4849800;29;20402;-91
2023/04/04 12:51:20;;;;;;;5.78;2.92;;;;;;;;;;4848588;29;20451;-92
2023/04/04 12:53:55;;;;;;;5.45;3.28;;;;;;;;;;4848768;29;20053;-91
2023/04/04 12:56:26;;;;;;;3.83;3.08;;;;;;;;;;4849847;29;20053;-92
2023/04/04 12:58:52;;;;;;;6.03;3.03;;;;;;;;;;4849019;29;20088;-91
2023/04/04 13:01:20;;;;;;;4.95;2.80;;;;;;;;;;4834029;29;20057;-92
2023/04/04 13:03:46;;;;;;;4.47;2.78;;;;;;;;;;4848752;29;20056;-92
2023/04/04 13:06:15;;;;;;;3.88;2.63;;;;;;;;;;4834291;29;20141;-92
2023/04/04 13:08:50;;;;;;;6.20;2.78;;;;;;;;;;4848901;29;20064;-92
2023/04/04 13:11:17;;;;;;;5.38;2.65;;;;;;;;;;4848994;29;20053;-91
2023/04/04 13:13:44;;;;;;;5.22;2.75;;;;;;;;;;4848669;29;20057;-92
2023/04/04 13:16:11;;;;;;;7.80;3.35;;;;;;;;;;4848769;29;20085;-92
2023/04/04 13:18:40;;;;;;;5.60;3.17;;;;;;;;;;4863614;29;20439;-91
2023/04/04 13:21:07;;;;;;;4.80;2.72;;;;;;;;;;4849035;29;20458;-92
2023/04/04 13:23:38;;;;;;;4.07;2.03;;;;;;;;;;4863914;29;20049;-92
2023/04/04 13:26:08;;;;;;;7.78;3.53;;;;;;;;;;4847966;29;20061;-92
2023/04/04 13:28:34;;;;;;;3.30;2.47;;;;;;;;;;4848672;29;20324;-92
2023/04/04 13:31:04;;;;;;;3.35;2.70;;;;;;;;;;4848869;29;20085;-92
2023/04/04 13:33:30;;;;;;;2.78;2.47;;;;;;;;;;4863495;29;20153;-92
2023/04/04 13:35:56;;;;;;;5.43;2.50;;;;;;;;;;4848087;29;20053;-92
2023/04/04 13:38:23;;;;;;;5.47;2.70;;;;;;;;;;4832810;29;20053;-92
2023/04/04 13:40:49;;;;;;;4.88;3.03;;;;;;;;;;4865070;29;20064;-91
2023/04/04 13:43:15;;;;;;;3.45;2.75;;;;;;;;;;4852400;29;20053;-92
2023/04/04 13:45:42;;;;;;;3.15;2.45;;;;;;;;;;4847818;24;20050;-92
2023/04/04 13:48:08;;;;;;;5.63;2.63;;;;;;;;;;4833852;29;20069;-91
2023/04/04 13:50:39;;;;;;;8.25;2.60;;;;;;;;;;4818653;29;20049;-92
2023/04/04 13:53:05;;;;;;;5.38;2.17;;;;;;;;;;4864481;29;20061;-91
2023/04/04 13:55:31;;;;;;;5.47;2.75;;;;;;;;;;4833185;29;20057;-92
2023/04/04 13:57:57;;;;;;;7.30;2.80;;;;;;;;;;4833469;29;20575;-92
2023/04/04 14:00:24;;;;;;;2.85;2.40;;;;;;;;;;4818054;29;20518;-92
2023/04/04 14:02:50;;;;;;;3.42;2.40;;;;;;;;;;4833503;29;20080;-91
2023/04/04 14:05:22;;;;;;;3.00;2.42;;;;;;;;;;4833223;29;20053;-91
2023/04/04 14:07:48;;;;;;;6.75;2.70;;;;;;;;;;4819014;29;20062;-91
2023/04/04 14:10:15;;;;;;;3.28;2.20;;;;;;;;;;4833104;29;20049;-91
2023/04/04 14:12:42;;;;;;;4.80;2.58;;;;;;;;;;4832600;29;20061;-91
2023/04/04 14:15:08;;;;;;;5.75;2.60;;;;;;;;;;4832870;29;20057;-91
2023/04/04 14:17:37;;;;;;;3.50;2.30;;;;;;;;;;4864239;29;20088;-91
2023/04/04 14:20:04;;;;;;;6.00;2.75;;;;;;;;;;4833121;29;20092;-91
2023/04/04 14:22:32;;;;;;;5.03;2.20;;;;;;;;;;4833095;29;20057;-91
2023/04/04 14:24:58;;;;;;;3.75;2.78;;;;;;;;;;4832576;29;20497;-91
2023/04/04 14:27:24;;;;;;;6.28;2.72;;;;;;;;;;4832553;29;20054;-91
2023/04/04 14:29:50;;;;;;;5.45;2.83;;;;;;;;;;4863493;29;20057;-91
2023/04/04 14:32:18;;;;;;;4.72;2.70;;;;;;;;;;4832140;29;20109;-89
2023/04/04 14:34:44;;;;;;;6.93;2.78;;;;;;;;;;4832497;29;20061;-89
2023/04/04 14:37:10;;;;;;;3.40;2.35;;;;;;;;;;4832717;29;20090;-90
2023/04/04 14:39:36;;;;;;;10.02;2.40;;;;;;;;;;4832568;29;20049;-90
2023/04/04 14:42:02;;;;;;;4.28;2.92;;;;;;;;;;4832090;29;20054;-90
2023/04/04 14:44:28;;;;;;;5.15;2.90;;;;;;;;;;4817701;29;20641;-90
2023/04/04 14:46:55;;;;;;;3.83;2.80;;;;;;;;;;4832128;29;20053;-90
2023/04/04 14:49:21;;;;;;;7.43;2.70;;;;;;;;;;4832662;29;20517;-89
2023/04/04 14:51:47;;;;;;;4.97;2.75;;;;;;;;;;4832426;29;20060;-90
2023/04/04 14:54:13;;;;;;;4.18;2.70;;;;;;;;;;4863508;29;20577;-90
2023/04/04 14:56:41;;;;;;;3.22;2.63;;;;;;;;;;4817292;29;20121;-89
2023/04/04 14:59:07;;;;;;;7.70;2.70;;;;;;;;;;4817443;29;20517;-90
2023/04/04 15:01:33;;;;;;;5.60;3.13;;;;;;;;;;4817607;29;20495;-90
2023/04/04 15:03:59;;;;;;;5.18;2.97;;;;;;;;;;4831882;29;20064;-90